<?xml version="1.0" encoding="UTF-8" standalone="no" ?>
<gpx xmlns="http://www.topografix.com/GPX/1/1" xmlns:xsi="http://www.w3.org/2001/XMLSchema-instance" xsi:schemaLocation="http://www.topografix.com/GPX/1/1 http://www.topografix.com/GPX/1/1/gpx.xsd" version="1.1" creator="VisuGPX - https://www.visugpx.com">
  <metadata>
    <name>Montflanquin Gravel</name>
    <desc><![CDATA[Hors asphalte gravel OK (testé avec Diverge 4, pneus 50mm)]]></desc>
  </metadata>
  <wpt lat="44.5662" lon="0.73317">
    <ele>120.6</ele>
    <name><![CDATA[David haut/bas]]></name>
  </wpt>
  <wpt lat="44.55013" lon="0.85946">
    <ele>126.4</ele>
  </wpt>
  <trk>
    <name><![CDATA[Montflanquin Gravel_5]]></name>
    <extensions>
      <line xmlns="http://www.topografix.com/GPX/gpx_style/0/2">
        <color>FFFF00</color>
        <opacity>1</opacity>
        <width>4</width>
      </line>
    </extensions>
    <trkseg>
      <trkpt lat="44.63483" lon="0.77571">
        <ele>116.4</ele>
        <time>2026-08-15T07:42:02Z</time>
      </trkpt>
      <trkpt lat="44.63479" lon="0.77571">
        <ele>116.4</ele>
        <time>2026-08-15T07:42:03Z</time>
      </trkpt>
      <trkpt lat="44.63476" lon="0.7757">
        <ele>116.4</ele>
        <time>2026-08-15T07:42:04Z</time>
      </trkpt>
      <trkpt lat="44.63472" lon="0.77568">
        <ele>116.6</ele>
        <time>2026-08-15T07:42:05Z</time>
      </trkpt>
      <trkpt lat="44.63468" lon="0.77567">
        <ele>116.6</ele>
        <time>2026-08-15T07:42:06Z</time>
      </trkpt>
      <trkpt lat="44.63465" lon="0.77566">
        <ele>116.6</ele>
        <time>2026-08-15T07:42:07Z</time>
      </trkpt>
      <trkpt lat="44.63461" lon="0.77565">
        <ele>116.6</ele>
        <time>2026-08-15T07:42:08Z</time>
      </trkpt>
      <trkpt lat="44.63457" lon="0.77563">
        <ele>116.6</ele>
        <time>2026-08-15T07:42:09Z</time>
      </trkpt>
      <trkpt lat="44.63452" lon="0.77562">
        <ele>116.6</ele>
        <time>2026-08-15T07:42:10Z</time>
      </trkpt>
      <trkpt lat="44.63447" lon="0.7756">
        <ele>116.4</ele>
        <time>2026-08-15T07:42:11Z</time>
      </trkpt>
      <trkpt lat="44.63442" lon="0.77559">
        <ele>116.4</ele>
        <time>2026-08-15T07:42:12Z</time>
      </trkpt>
      <trkpt lat="44.63437" lon="0.77557">
        <ele>116.2</ele>
        <time>2026-08-15T07:42:13Z</time>
      </trkpt>
      <trkpt lat="44.63432" lon="0.77555">
        <ele>116</ele>
        <time>2026-08-15T07:42:14Z</time>
      </trkpt>
      <trkpt lat="44.63426" lon="0.77552">
        <ele>116</ele>
        <time>2026-08-15T07:42:15Z</time>
      </trkpt>
      <trkpt lat="44.63419" lon="0.7755">
        <ele>115.8</ele>
        <time>2026-08-15T07:42:16Z</time>
      </trkpt>
      <trkpt lat="44.63416" lon="0.77548">
        <ele>115.6</ele>
        <time>2026-08-15T07:42:17Z</time>
      </trkpt>
      <trkpt lat="44.63411" lon="0.77546">
        <ele>115.6</ele>
        <time>2026-08-15T07:42:18Z</time>
      </trkpt>
      <trkpt lat="44.63406" lon="0.77544">
        <ele>115.6</ele>
        <time>2026-08-15T07:42:19Z</time>
      </trkpt>
      <trkpt lat="44.63402" lon="0.77542">
        <ele>115.4</ele>
        <time>2026-08-15T07:42:20Z</time>
      </trkpt>
      <trkpt lat="44.63397" lon="0.7754">
        <ele>115.4</ele>
        <time>2026-08-15T07:42:21Z</time>
      </trkpt>
      <trkpt lat="44.63393" lon="0.77538">
        <ele>115.4</ele>
        <time>2026-08-15T07:42:22Z</time>
      </trkpt>
      <trkpt lat="44.63389" lon="0.77536">
        <ele>115.2</ele>
        <time>2026-08-15T07:42:23Z</time>
      </trkpt>
      <trkpt lat="44.63384" lon="0.77534">
        <ele>115</ele>
        <time>2026-08-15T07:42:24Z</time>
      </trkpt>
      <trkpt lat="44.6338" lon="0.77532">
        <ele>115</ele>
        <time>2026-08-15T07:42:25Z</time>
      </trkpt>
      <trkpt lat="44.63375" lon="0.7753">
        <ele>114.8</ele>
        <time>2026-08-15T07:42:26Z</time>
      </trkpt>
      <trkpt lat="44.6337" lon="0.77528">
        <ele>114.6</ele>
        <time>2026-08-15T07:42:27Z</time>
      </trkpt>
      <trkpt lat="44.63365" lon="0.77525">
        <ele>114.4</ele>
        <time>2026-08-15T07:42:28Z</time>
      </trkpt>
      <trkpt lat="44.63359" lon="0.77523">
        <ele>114.2</ele>
        <time>2026-08-15T07:42:29Z</time>
      </trkpt>
      <trkpt lat="44.63354" lon="0.7752">
        <ele>114</ele>
        <time>2026-08-15T07:42:30Z</time>
      </trkpt>
      <trkpt lat="44.63346" lon="0.77517">
        <ele>113.8</ele>
        <time>2026-08-15T07:42:31Z</time>
      </trkpt>
      <trkpt lat="44.6334" lon="0.77515">
        <ele>113.6</ele>
        <time>2026-08-15T07:42:32Z</time>
      </trkpt>
      <trkpt lat="44.63334" lon="0.77512">
        <ele>113.6</ele>
        <time>2026-08-15T07:42:33Z</time>
      </trkpt>
      <trkpt lat="44.63327" lon="0.77509">
        <ele>113.4</ele>
        <time>2026-08-15T07:42:34Z</time>
      </trkpt>
      <trkpt lat="44.63321" lon="0.77506">
        <ele>112.8</ele>
        <time>2026-08-15T07:42:35Z</time>
      </trkpt>
      <trkpt lat="44.63315" lon="0.77501">
        <ele>112.4</ele>
        <time>2026-08-15T07:42:36Z</time>
      </trkpt>
      <trkpt lat="44.63309" lon="0.77497">
        <ele>112</ele>
        <time>2026-08-15T07:42:37Z</time>
      </trkpt>
      <trkpt lat="44.63303" lon="0.77492">
        <ele>111.6</ele>
        <time>2026-08-15T07:42:38Z</time>
      </trkpt>
      <trkpt lat="44.63297" lon="0.77486">
        <ele>111.4</ele>
        <time>2026-08-15T07:42:39Z</time>
      </trkpt>
      <trkpt lat="44.63291" lon="0.77481">
        <ele>111.2</ele>
        <time>2026-08-15T07:42:40Z</time>
      </trkpt>
      <trkpt lat="44.63285" lon="0.77475">
        <ele>111</ele>
        <time>2026-08-15T07:42:41Z</time>
      </trkpt>
      <trkpt lat="44.63279" lon="0.7747">
        <ele>110.6</ele>
        <time>2026-08-15T07:42:42Z</time>
      </trkpt>
      <trkpt lat="44.63274" lon="0.77465">
        <ele>110.4</ele>
        <time>2026-08-15T07:42:43Z</time>
      </trkpt>
      <trkpt lat="44.63268" lon="0.7746">
        <ele>110</ele>
        <time>2026-08-15T07:42:44Z</time>
      </trkpt>
      <trkpt lat="44.63263" lon="0.77455">
        <ele>109.6</ele>
        <time>2026-08-15T07:42:45Z</time>
      </trkpt>
      <trkpt lat="44.63257" lon="0.77451">
        <ele>109.4</ele>
        <time>2026-08-15T07:42:46Z</time>
      </trkpt>
      <trkpt lat="44.63252" lon="0.77446">
        <ele>109.4</ele>
        <time>2026-08-15T07:42:47Z</time>
      </trkpt>
      <trkpt lat="44.63246" lon="0.77442">
        <ele>109.4</ele>
        <time>2026-08-15T07:42:48Z</time>
      </trkpt>
      <trkpt lat="44.63241" lon="0.77437">
        <ele>109.4</ele>
        <time>2026-08-15T07:42:49Z</time>
      </trkpt>
      <trkpt lat="44.63236" lon="0.77433">
        <ele>109</ele>
        <time>2026-08-15T07:42:50Z</time>
      </trkpt>
      <trkpt lat="44.6323" lon="0.7743">
        <ele>109</ele>
        <time>2026-08-15T07:42:51Z</time>
      </trkpt>
      <trkpt lat="44.63225" lon="0.77426">
        <ele>108.8</ele>
        <time>2026-08-15T07:42:52Z</time>
      </trkpt>
      <trkpt lat="44.6322" lon="0.77422">
        <ele>108.8</ele>
        <time>2026-08-15T07:42:53Z</time>
      </trkpt>
      <trkpt lat="44.63215" lon="0.77418">
        <ele>108.6</ele>
        <time>2026-08-15T07:42:54Z</time>
      </trkpt>
      <trkpt lat="44.6321" lon="0.77414">
        <ele>108.6</ele>
        <time>2026-08-15T07:42:55Z</time>
      </trkpt>
      <trkpt lat="44.63206" lon="0.7741">
        <ele>108.4</ele>
        <time>2026-08-15T07:42:56Z</time>
      </trkpt>
      <trkpt lat="44.63201" lon="0.77406">
        <ele>108.4</ele>
        <time>2026-08-15T07:42:57Z</time>
      </trkpt>
      <trkpt lat="44.63197" lon="0.77402">
        <ele>108.4</ele>
        <time>2026-08-15T07:42:58Z</time>
      </trkpt>
      <trkpt lat="44.63192" lon="0.77398">
        <ele>108.2</ele>
        <time>2026-08-15T07:42:59Z</time>
      </trkpt>
      <trkpt lat="44.63187" lon="0.77395">
        <ele>108.2</ele>
        <time>2026-08-15T07:43:00Z</time>
      </trkpt>
      <trkpt lat="44.63183" lon="0.77391">
        <ele>108</ele>
        <time>2026-08-15T07:43:01Z</time>
      </trkpt>
      <trkpt lat="44.63178" lon="0.77387">
        <ele>108</ele>
        <time>2026-08-15T07:43:02Z</time>
      </trkpt>
      <trkpt lat="44.63173" lon="0.77383">
        <ele>108</ele>
        <time>2026-08-15T07:43:03Z</time>
      </trkpt>
      <trkpt lat="44.63169" lon="0.7738">
        <ele>108</ele>
        <time>2026-08-15T07:43:04Z</time>
      </trkpt>
      <trkpt lat="44.63165" lon="0.77377">
        <ele>108</ele>
        <time>2026-08-15T07:43:05Z</time>
      </trkpt>
      <trkpt lat="44.63161" lon="0.77373">
        <ele>107.8</ele>
        <time>2026-08-15T07:43:06Z</time>
      </trkpt>
      <trkpt lat="44.63156" lon="0.7737">
        <ele>107.6</ele>
        <time>2026-08-15T07:43:07Z</time>
      </trkpt>
      <trkpt lat="44.63152" lon="0.77366">
        <ele>107.6</ele>
        <time>2026-08-15T07:43:08Z</time>
      </trkpt>
      <trkpt lat="44.63145" lon="0.7736">
        <ele>107.6</ele>
        <time>2026-08-15T07:43:09Z</time>
      </trkpt>
      <trkpt lat="44.6314" lon="0.77356">
        <ele>107.4</ele>
        <time>2026-08-15T07:43:10Z</time>
      </trkpt>
      <trkpt lat="44.63135" lon="0.77352">
        <ele>107.4</ele>
        <time>2026-08-15T07:43:11Z</time>
      </trkpt>
      <trkpt lat="44.63131" lon="0.77349">
        <ele>107.2</ele>
        <time>2026-08-15T07:43:12Z</time>
      </trkpt>
      <trkpt lat="44.63126" lon="0.77345">
        <ele>107.2</ele>
        <time>2026-08-15T07:43:13Z</time>
      </trkpt>
      <trkpt lat="44.63121" lon="0.77342">
        <ele>107</ele>
        <time>2026-08-15T07:43:14Z</time>
      </trkpt>
      <trkpt lat="44.63118" lon="0.77341">
        <ele>107</ele>
        <time>2026-08-15T07:43:15Z</time>
      </trkpt>
      <trkpt lat="44.63113" lon="0.7734">
        <ele>107</ele>
        <time>2026-08-15T07:43:16Z</time>
      </trkpt>
      <trkpt lat="44.63109" lon="0.77339">
        <ele>107</ele>
        <time>2026-08-15T07:43:17Z</time>
      </trkpt>
      <trkpt lat="44.63104" lon="0.77339">
        <ele>107</ele>
        <time>2026-08-15T07:43:18Z</time>
      </trkpt>
      <trkpt lat="44.63098" lon="0.77339">
        <ele>107</ele>
        <time>2026-08-15T07:43:19Z</time>
      </trkpt>
      <trkpt lat="44.63093" lon="0.77339">
        <ele>107.2</ele>
        <time>2026-08-15T07:43:20Z</time>
      </trkpt>
      <trkpt lat="44.63088" lon="0.77339">
        <ele>107.2</ele>
        <time>2026-08-15T07:43:21Z</time>
      </trkpt>
      <trkpt lat="44.63083" lon="0.77339">
        <ele>107.4</ele>
        <time>2026-08-15T07:43:22Z</time>
      </trkpt>
      <trkpt lat="44.63078" lon="0.7734">
        <ele>107.4</ele>
        <time>2026-08-15T07:43:23Z</time>
      </trkpt>
      <trkpt lat="44.63073" lon="0.7734">
        <ele>107.4</ele>
        <time>2026-08-15T07:43:24Z</time>
      </trkpt>
      <trkpt lat="44.63068" lon="0.7734">
        <ele>107.6</ele>
        <time>2026-08-15T07:43:25Z</time>
      </trkpt>
      <trkpt lat="44.63064" lon="0.7734">
        <ele>107.6</ele>
        <time>2026-08-15T07:43:26Z</time>
      </trkpt>
      <trkpt lat="44.63059" lon="0.77341">
        <ele>107.6</ele>
        <time>2026-08-15T07:43:27Z</time>
      </trkpt>
      <trkpt lat="44.63054" lon="0.77341">
        <ele>107.6</ele>
        <time>2026-08-15T07:43:28Z</time>
      </trkpt>
      <trkpt lat="44.63049" lon="0.77342">
        <ele>107.6</ele>
        <time>2026-08-15T07:43:29Z</time>
      </trkpt>
      <trkpt lat="44.63044" lon="0.77343">
        <ele>107.8</ele>
        <time>2026-08-15T07:43:30Z</time>
      </trkpt>
      <trkpt lat="44.6304" lon="0.77344">
        <ele>108</ele>
        <time>2026-08-15T07:43:31Z</time>
      </trkpt>
      <trkpt lat="44.63035" lon="0.77345">
        <ele>108</ele>
        <time>2026-08-15T07:43:32Z</time>
      </trkpt>
      <trkpt lat="44.63031" lon="0.77346">
        <ele>108</ele>
        <time>2026-08-15T07:43:33Z</time>
      </trkpt>
      <trkpt lat="44.63026" lon="0.77346">
        <ele>108.4</ele>
        <time>2026-08-15T07:43:34Z</time>
      </trkpt>
      <trkpt lat="44.63022" lon="0.77346">
        <ele>108.4</ele>
        <time>2026-08-15T07:43:35Z</time>
      </trkpt>
      <trkpt lat="44.63017" lon="0.77346">
        <ele>108.6</ele>
        <time>2026-08-15T07:43:36Z</time>
      </trkpt>
      <trkpt lat="44.63012" lon="0.77345">
        <ele>108.6</ele>
        <time>2026-08-15T07:43:37Z</time>
      </trkpt>
      <trkpt lat="44.63008" lon="0.77344">
        <ele>108.8</ele>
        <time>2026-08-15T07:43:38Z</time>
      </trkpt>
      <trkpt lat="44.63003" lon="0.77344">
        <ele>109</ele>
        <time>2026-08-15T07:43:39Z</time>
      </trkpt>
      <trkpt lat="44.62999" lon="0.77343">
        <ele>109</ele>
        <time>2026-08-15T07:43:40Z</time>
      </trkpt>
      <trkpt lat="44.62995" lon="0.77342">
        <ele>109.4</ele>
        <time>2026-08-15T07:43:41Z</time>
      </trkpt>
      <trkpt lat="44.62991" lon="0.77341">
        <ele>109.4</ele>
        <time>2026-08-15T07:43:42Z</time>
      </trkpt>
      <trkpt lat="44.62986" lon="0.7734">
        <ele>109.6</ele>
        <time>2026-08-15T07:43:43Z</time>
      </trkpt>
      <trkpt lat="44.62982" lon="0.77339">
        <ele>109.6</ele>
        <time>2026-08-15T07:43:44Z</time>
      </trkpt>
      <trkpt lat="44.62978" lon="0.77338">
        <ele>109.8</ele>
        <time>2026-08-15T07:43:45Z</time>
      </trkpt>
      <trkpt lat="44.62974" lon="0.77337">
        <ele>110</ele>
        <time>2026-08-15T07:43:46Z</time>
      </trkpt>
      <trkpt lat="44.6297" lon="0.77336">
        <ele>110.4</ele>
        <time>2026-08-15T07:43:47Z</time>
      </trkpt>
      <trkpt lat="44.62966" lon="0.77336">
        <ele>110.6</ele>
        <time>2026-08-15T07:43:48Z</time>
      </trkpt>
      <trkpt lat="44.62962" lon="0.77335">
        <ele>111</ele>
        <time>2026-08-15T07:43:49Z</time>
      </trkpt>
      <trkpt lat="44.62959" lon="0.77334">
        <ele>111</ele>
        <time>2026-08-15T07:43:50Z</time>
      </trkpt>
      <trkpt lat="44.62955" lon="0.77334">
        <ele>111.4</ele>
        <time>2026-08-15T07:43:51Z</time>
      </trkpt>
      <trkpt lat="44.62951" lon="0.77334">
        <ele>111.4</ele>
        <time>2026-08-15T07:43:52Z</time>
      </trkpt>
      <trkpt lat="44.62947" lon="0.77334">
        <ele>111.6</ele>
        <time>2026-08-15T07:43:53Z</time>
      </trkpt>
      <trkpt lat="44.62943" lon="0.77334">
        <ele>112</ele>
        <time>2026-08-15T07:43:54Z</time>
      </trkpt>
      <trkpt lat="44.62939" lon="0.77335">
        <ele>112.2</ele>
        <time>2026-08-15T07:43:55Z</time>
      </trkpt>
      <trkpt lat="44.62935" lon="0.77336">
        <ele>112.4</ele>
        <time>2026-08-15T07:43:56Z</time>
      </trkpt>
      <trkpt lat="44.62931" lon="0.77337">
        <ele>112.6</ele>
        <time>2026-08-15T07:43:57Z</time>
      </trkpt>
      <trkpt lat="44.62927" lon="0.77338">
        <ele>112.8</ele>
        <time>2026-08-15T07:43:58Z</time>
      </trkpt>
      <trkpt lat="44.62923" lon="0.7734">
        <ele>113</ele>
        <time>2026-08-15T07:43:59Z</time>
      </trkpt>
      <trkpt lat="44.62919" lon="0.77341">
        <ele>113</ele>
        <time>2026-08-15T07:44:00Z</time>
      </trkpt>
      <trkpt lat="44.62915" lon="0.77342">
        <ele>113.4</ele>
        <time>2026-08-15T07:44:01Z</time>
      </trkpt>
      <trkpt lat="44.6291" lon="0.77343">
        <ele>113.4</ele>
        <time>2026-08-15T07:44:02Z</time>
      </trkpt>
      <trkpt lat="44.62906" lon="0.77345">
        <ele>113.4</ele>
        <time>2026-08-15T07:44:03Z</time>
      </trkpt>
      <trkpt lat="44.62901" lon="0.77345">
        <ele>113.6</ele>
        <time>2026-08-15T07:44:04Z</time>
      </trkpt>
      <trkpt lat="44.62897" lon="0.77346">
        <ele>113.4</ele>
        <time>2026-08-15T07:44:05Z</time>
      </trkpt>
    </trkseg>
  </trk>
</gpx>